createdAt,value
2023-03-31T00:00:26.634Z,13.00
2023-03-31T00:03:24.401Z,11.00
2023-03-31T00:06:19.630Z,10.50
2023-03-31T00:09:19.043Z,9.70
2023-03-31T00:12:14.207Z,10.90
2023-03-31T00:15:10.074Z,11.30
2023-03-31T00:18:06.529Z,9.80
2023-03-31T00:21:24.629Z,10.30
2023-03-31T00:24:19.771Z,9.40
2023-03-31T00:27:14.312Z,11.00
2023-03-31T00:30:10.665Z,9.40
2023-03-31T00:33:05.366Z,11.40
2023-03-31T00:36:06.291Z,11.20
2023-03-31T00:39:04.590Z,10.40
2023-03-31T00:45:28.648Z,13.00
2023-03-31T00:48:24.214Z,9.20
2023-03-31T00:51:20.049Z,10.20
2023-03-31T00:54:15.468Z,10.20
2023-03-31T00:57:07.708Z,9.40
2023-03-31T01:00:10.374Z,8.90
2023-03-31T01:03:11.639Z,10.00
2023-03-31T01:06:11.086Z,10.40
2023-03-31T01:09:11.271Z,9.30
2023-03-31T01:12:08.574Z,10.70
2023-03-31T01:15:04.531Z,10.40
2023-03-31T01:17:58.900Z,10.40
2023-03-31T01:21:30.931Z,9.80
2023-03-31T01:25:06.051Z,10.50
2023-03-31T01:28:16.363Z,9.80
2023-03-31T01:32:09.322Z,10.20
2023-03-31T01:35:56.967Z,9.10
2023-03-31T01:39:24.092Z,11.50
2023-03-31T01:42:24.233Z,8.70
2023-03-31T01:45:34.384Z,8.50
2023-03-31T01:51:37.027Z,10.30
2023-03-31T01:54:45.573Z,11.30
2023-03-31T01:57:45.515Z,9.50
2023-03-31T02:00:43.582Z,11.30
2023-03-31T02:03:43.043Z,9.70
2023-03-31T02:06:44.848Z,8.60
2023-03-31T02:09:45.469Z,9.90
2023-03-31T02:12:43.144Z,9.80
2023-03-31T02:18:38.430Z,10.00
2023-03-31T02:21:34.609Z,9.30
2023-03-31T02:24:32.809Z,9.40
2023-03-31T02:27:30.705Z,9.70
2023-03-31T02:30:29.820Z,9.60
2023-03-31T02:33:24.327Z,9.70
2023-03-31T02:36:19.555Z,8.20
2023-03-31T02:39:18.606Z,8.10
2023-03-31T02:42:12.931Z,8.40
2023-03-31T02:45:29.404Z,10.60
2023-03-31T02:48:25.239Z,9.80
2023-03-31T02:52:03.586Z,7.90
2023-03-31T02:55:22.636Z,8.70
2023-03-31T02:58:37.750Z,11.30
2023-03-31T03:01:44.988Z,9.30
2023-03-31T03:05:11.955Z,9.70
2023-03-31T03:08:18.183Z,8.40
2023-03-31T03:11:22.048Z,7.60
2023-03-31T03:17:43.545Z,7.90
2023-03-31T03:20:39.140Z,7.10
2023-03-31T03:23:34.182Z,8.10
2023-03-31T03:26:28.874Z,9.00
2023-03-31T03:29:23.300Z,9.30
2023-03-31T03:32:17.679Z,9.00
2023-03-31T03:35:12.796Z,8.50
2023-03-31T03:38:06.952Z,7.80
2023-03-31T03:41:00.882Z,7.70
2023-03-31T03:43:55.124Z,8.90
2023-03-31T03:46:49.523Z,8.70
2023-03-31T03:49:43.592Z,8.70
2023-03-31T03:52:38.176Z,8.40
2023-03-31T03:55:32.074Z,7.80
2023-03-31T03:58:21.457Z,8.20
2023-03-31T04:01:16.236Z,9.20
2023-03-31T04:04:10.479Z,8.60
2023-03-31T04:07:04.939Z,9.10
2023-03-31T04:09:58.546Z,8.00
2023-03-31T04:12:53.177Z,8.40
2023-03-31T04:15:47.521Z,8.50
2023-03-31T04:18:42.889Z,11.20
2023-03-31T04:21:37.029Z,9.00
2023-03-31T04:24:33.023Z,8.70
2023-03-31T04:27:27.866Z,8.00
2023-03-31T04:30:30.732Z,7.10
2023-03-31T04:33:25.608Z,8.60
2023-03-31T04:36:19.920Z,7.40
2023-03-31T04:39:14.607Z,8.10
2023-03-31T04:42:09.080Z,7.70
2023-03-31T04:45:03.090Z,10.20
2023-03-31T04:47:57.598Z,7.10
2023-03-31T04:50:52.767Z,7.00
2023-03-31T04:53:47.390Z,7.20
2023-03-31T04:56:41.370Z,7.00
2023-03-31T04:59:35.810Z,8.80
2023-03-31T05:02:30.031Z,8.10
2023-03-31T05:05:24.693Z,9.40
2023-03-31T05:08:19.035Z,7.70
2023-03-31T05:11:13.266Z,9.70
2023-03-31T05:14:07.332Z,6.20
2023-03-31T05:17:01.918Z,7.30
2023-03-31T05:19:56.138Z,7.60
2023-03-31T05:22:50.806Z,7.60
2023-03-31T05:25:45.113Z,8.20
2023-03-31T05:28:40.575Z,8.10
2023-03-31T05:31:35.351Z,7.60
2023-03-31T05:34:30.298Z,7.80
2023-03-31T05:37:25.145Z,11.60
2023-03-31T05:40:19.415Z,8.30
2023-03-31T05:43:13.322Z,8.70
2023-03-31T05:46:08.418Z,8.30
2023-03-31T05:49:02.834Z,9.80
2023-03-31T05:51:56.881Z,10.00
2023-03-31T05:54:51.118Z,9.70
2023-03-31T05:57:45.669Z,9.10
2023-03-31T06:00:39.724Z,9.10
2023-03-31T06:03:33.706Z,8.80
2023-03-31T06:06:28.091Z,10.30
2023-03-31T06:09:22.218Z,10.00
2023-03-31T06:12:17.150Z,10.60
2023-03-31T06:15:13.253Z,8.90
2023-03-31T06:18:10.855Z,9.80
2023-03-31T06:21:05.468Z,8.10
2023-03-31T06:24:00.810Z,9.70
2023-03-31T06:26:54.991Z,7.50
2023-03-31T06:29:50.202Z,7.40
2023-03-31T06:32:44.270Z,7.60
2023-03-31T06:35:40.580Z,8.80
2023-03-31T06:38:36.042Z,8.30
2023-03-31T06:41:30.521Z,12.70
2023-03-31T06:44:24.746Z,9.20
2023-03-31T06:47:19.148Z,10.10
2023-03-31T06:50:15.059Z,8.90
2023-03-31T06:53:09.383Z,8.40
2023-03-31T06:56:04.094Z,9.90
2023-03-31T06:58:58.736Z,10.90
2023-03-31T07:01:53.065Z,8.60
2023-03-31T07:04:47.645Z,8.80
2023-03-31T07:07:42.699Z,7.90
2023-03-31T07:10:38.672Z,9.90
2023-03-31T07:13:33.244Z,10.50
2023-03-31T07:16:27.708Z,9.20
2023-03-31T07:19:12.853Z,9.70
2023-03-31T07:22:07.209Z,7.90
2023-03-31T07:25:01.542Z,11.60
2023-03-31T07:27:56.044Z,10.10
2023-03-31T07:30:50.977Z,11.60
2023-03-31T07:33:45.601Z,9.90
2023-03-31T07:36:39.748Z,12.40
2023-03-31T07:39:50.133Z,9.80
2023-03-31T07:42:52.378Z,8.30
2023-03-31T07:45:46.522Z,11.20
2023-03-31T07:48:40.827Z,7.50
2023-03-31T07:51:36.700Z,9.80
2023-03-31T07:54:31.118Z,13.90
2023-03-31T07:57:28.148Z,14.30
2023-03-31T08:00:24.817Z,9.20
2023-03-31T08:03:19.308Z,7.40
2023-03-31T08:06:13.464Z,9.20
2023-03-31T08:09:08.735Z,8.30
2023-03-31T08:12:02.507Z,7.10
2023-03-31T08:14:56.220Z,36.70
2023-03-31T08:17:50.701Z,13.30
2023-03-31T08:20:46.159Z,9.80
2023-03-31T08:23:40.852Z,7.70
2023-03-31T08:26:35.332Z,11.70
2023-03-31T08:29:29.517Z,10.30
2023-03-31T08:32:26.211Z,8.30
2023-03-31T08:35:20.554Z,6.80
2023-03-31T08:38:14.738Z,5.00
2023-03-31T08:41:16.293Z,5.60
2023-03-31T08:44:15.825Z,6.70
2023-03-31T08:47:16.499Z,8.40
2023-03-31T08:50:17.058Z,7.90
2023-03-31T08:53:21.820Z,8.40
2023-03-31T08:56:22.646Z,9.70
2023-03-31T08:59:27.586Z,6.90
2023-03-31T09:02:35.819Z,8.10
2023-03-31T09:06:00.564Z,6.90
2023-03-31T09:09:01.840Z,7.40
2023-03-31T09:11:59.682Z,8.80
2023-03-31T09:15:01.404Z,7.40
2023-03-31T09:17:58.720Z,6.70
2023-03-31T09:21:01.984Z,6.70
2023-03-31T09:24:03.431Z,5.60
2023-03-31T09:27:01.930Z,4.60
2023-03-31T09:29:48.172Z,7.50
2023-03-31T09:32:42.899Z,4.80
2023-03-31T09:35:37.555Z,7.00
2023-03-31T09:38:32.232Z,6.80
2023-03-31T09:41:26.214Z,6.00
2023-03-31T09:44:29.284Z,7.90
2023-03-31T09:47:30.430Z,6.60
2023-03-31T09:50:25.583Z,6.80
2023-03-31T09:53:25.620Z,5.80
2023-03-31T09:56:47.035Z,5.30
2023-03-31T09:59:44.114Z,8.20
2023-03-31T10:02:45.502Z,6.40
2023-03-31T10:05:50.032Z,6.20
2023-03-31T10:08:51.725Z,5.50
2023-03-31T10:11:56.611Z,7.20
2023-03-31T10:14:53.411Z,8.50
2023-03-31T10:21:16.828Z,5.30
2023-03-31T10:24:19.289Z,7.60
2023-03-31T10:27:00.050Z,7.10
2023-03-31T10:29:57.562Z,7.40
2023-03-31T10:32:54.586Z,4.60
2023-03-31T10:35:51.298Z,5.00
2023-03-31T10:38:49.101Z,7.60
2023-03-31T10:41:43.143Z,4.90
2023-03-31T10:44:40.578Z,5.80
2023-03-31T10:47:36.291Z,5.90
2023-03-31T10:50:35.365Z,6.90
2023-03-31T10:53:29.515Z,5.50
2023-03-31T10:56:42.310Z,8.40
2023-03-31T10:59:58.650Z,6.30
2023-03-31T11:03:12.111Z,6.90
2023-03-31T11:06:16.225Z,6.00
2023-03-31T11:09:36.638Z,5.90
2023-03-31T11:12:20.487Z,10.40
2023-03-31T11:15:51.999Z,8.50
2023-03-31T11:18:59.682Z,8.10
2023-03-31T11:22:07.511Z,6.70
2023-03-31T11:25:24.253Z,6.40
2023-03-31T11:31:34.837Z,7.50
2023-03-31T11:34:58.070Z,6.10
2023-03-31T11:38:12.240Z,6.90
2023-03-31T11:41:03.736Z,5.70
2023-03-31T11:44:03.709Z,5.70
2023-03-31T11:47:07.584Z,3.60
2023-03-31T11:50:06.074Z,6.80
2023-03-31T11:53:05.748Z,7.40
2023-03-31T11:56:02.571Z,7.30
2023-03-31T11:59:02.101Z,7.00
2023-03-31T12:02:05.917Z,6.90
2023-03-31T12:05:01.227Z,6.60
2023-03-31T12:08:04.343Z,5.80
2023-03-31T12:11:08.536Z,4.80
2023-03-31T12:14:17.049Z,6.00
2023-03-31T12:17:16.141Z,6.10
2023-03-31T12:20:22.491Z,10.10
2023-03-31T12:23:13.629Z,7.40
2023-03-31T12:25:59.289Z,4.10
2023-03-31T12:28:59.447Z,2.90
2023-03-31T12:31:58.463Z,5.10
2023-03-31T12:34:59.269Z,5.80
2023-03-31T12:38:11.256Z,9.20
2023-03-31T12:41:16.386Z,8.70
2023-03-31T12:44:15.641Z,4.60
2023-03-31T12:48:04.229Z,4.10
2023-03-31T12:51:24.409Z,6.60
2023-03-31T12:54:45.548Z,11.70
2023-03-31T12:57:39.352Z,8.10
2023-03-31T13:00:33.752Z,6.70
2023-03-31T13:03:53.861Z,6.60
2023-03-31T13:07:11.762Z,10.50
2023-03-31T13:10:52.913Z,7.50
2023-03-31T13:17:26.194Z,5.80
2023-03-31T13:20:41.016Z,5.00
2023-03-31T13:23:37.727Z,5.10
2023-03-31T13:26:50.448Z,4.90
2023-03-31T13:29:46.636Z,5.00
2023-03-31T13:32:42.232Z,7.20
2023-03-31T13:35:38.235Z,7.90
2023-03-31T13:38:46.597Z,6.50
2023-03-31T13:41:56.659Z,7.10
2023-03-31T13:45:10.931Z,5.80
2023-03-31T13:48:18.891Z,3.90
2023-03-31T13:51:33.174Z,3.90
2023-03-31T13:55:14.417Z,4.20
2023-03-31T13:58:51.379Z,8.00
2023-03-31T14:05:30.069Z,5.70
2023-03-31T14:08:34.128Z,6.20
2023-03-31T14:14:23.805Z,3.70
2023-03-31T14:17:18.656Z,5.40
2023-03-31T14:20:38.243Z,4.60
2023-03-31T14:23:45.587Z,5.20
2023-03-31T14:26:55.139Z,6.70
2023-03-31T14:29:57.981Z,5.20
2023-03-31T14:33:22.034Z,5.00
2023-03-31T14:36:28.451Z,6.20
2023-03-31T14:39:27.923Z,4.60
2023-03-31T14:42:27.090Z,10.10
2023-03-31T14:45:24.906Z,10.00
2023-03-31T14:48:19.126Z,10.00
2023-03-31T14:51:15.843Z,7.90
2023-03-31T14:54:19.321Z,15.60
2023-03-31T14:57:16.587Z,19.80
2023-03-31T15:00:18.025Z,16.80
2023-03-31T15:03:17.770Z,13.90
2023-03-31T15:06:14.302Z,17.10
2023-03-31T15:09:10.786Z,15.30
2023-03-31T15:12:08.633Z,17.00
2023-03-31T15:15:06.187Z,20.20
2023-03-31T15:18:00.063Z,19.90
2023-03-31T15:20:54.105Z,14.60
2023-03-31T15:23:47.889Z,14.20
2023-03-31T15:26:46.217Z,15.80
2023-03-31T15:29:43.030Z,13.00
2023-03-31T15:32:40.805Z,17.20
2023-03-31T15:35:38.563Z,11.90
2023-03-31T15:38:33.557Z,13.80
2023-03-31T15:41:32.305Z,13.90
2023-03-31T15:44:54.949Z,14.40
2023-03-31T15:48:11.523Z,12.60
2023-03-31T15:51:19.601Z,10.70
2023-03-31T15:54:33.860Z,11.80
2023-03-31T15:57:36.491Z,12.00
2023-03-31T16:00:52.665Z,9.60
2023-03-31T16:03:48.059Z,10.80
2023-03-31T16:06:50.226Z,12.40
2023-03-31T16:09:50.851Z,11.10
2023-03-31T16:12:55.587Z,10.40
2023-03-31T16:15:39.616Z,12.90
2023-03-31T16:18:33.485Z,12.70
2023-03-31T16:21:39.350Z,13.20
2023-03-31T16:24:37.593Z,14.40
2023-03-31T16:27:32.350Z,15.10
2023-03-31T16:30:37.572Z,12.00
2023-03-31T16:33:53.000Z,12.80
2023-03-31T16:36:47.487Z,11.60
2023-03-31T16:39:43.497Z,14.60
2023-03-31T16:42:38.873Z,11.20
2023-03-31T16:45:33.017Z,12.90
2023-03-31T16:48:33.871Z,11.50
2023-03-31T16:51:28.322Z,12.60
2023-03-31T16:54:25.940Z,12.80
2023-03-31T16:57:20.973Z,14.10
2023-03-31T17:00:21.325Z,12.30
2023-03-31T17:03:18.749Z,15.00
2023-03-31T17:06:08.503Z,13.90
2023-03-31T17:08:59.557Z,13.60
2023-03-31T17:11:53.319Z,13.50
2023-03-31T17:14:47.117Z,16.60
2023-03-31T17:17:41.697Z,15.80
2023-03-31T17:20:36.568Z,16.10
2023-03-31T17:23:30.809Z,15.20
2023-03-31T17:26:25.026Z,16.40
2023-03-31T17:29:20.085Z,15.90
2023-03-31T17:32:16.844Z,21.30
2023-03-31T17:35:20.931Z,19.20
2023-03-31T17:38:15.910Z,15.50
2023-03-31T17:41:13.867Z,16.70
2023-03-31T17:44:08.966Z,27.70
2023-03-31T17:47:03.340Z,29.70
2023-03-31T17:49:59.178Z,21.00
2023-03-31T17:52:53.437Z,22.90
2023-03-31T17:55:47.216Z,22.90
2023-03-31T17:58:41.603Z,16.50
2023-03-31T18:01:35.724Z,17.80
2023-03-31T18:04:29.880Z,18.80
2023-03-31T18:07:24.110Z,16.90
2023-03-31T18:10:18.649Z,16.20
2023-03-31T18:13:13.018Z,16.80
2023-03-31T18:16:09.807Z,15.20
2023-03-31T18:19:04.733Z,14.80
2023-03-31T18:21:58.553Z,16.50
2023-03-31T18:24:52.312Z,19.30
2023-03-31T18:27:47.350Z,15.20
2023-03-31T18:30:41.238Z,15.00
2023-03-31T18:33:35.736Z,14.20
2023-03-31T18:36:32.103Z,13.90
2023-03-31T18:39:27.507Z,18.00
2023-03-31T18:42:25.052Z,12.70
2023-03-31T18:45:19.143Z,15.30
2023-03-31T18:48:12.915Z,13.40
2023-03-31T18:51:06.942Z,14.60
2023-03-31T18:54:00.841Z,13.80
2023-03-31T18:56:54.827Z,12.50
2023-03-31T18:59:48.837Z,16.90
2023-03-31T19:02:42.856Z,14.60
2023-03-31T19:05:37.045Z,12.80
2023-03-31T19:08:32.567Z,13.70
2023-03-31T19:11:27.185Z,13.40
2023-03-31T19:14:20.868Z,14.80
2023-03-31T19:17:14.726Z,13.00
2023-03-31T19:20:16.258Z,12.10
2023-03-31T19:23:10.181Z,12.30
2023-03-31T19:26:04.807Z,14.20
2023-03-31T19:28:58.769Z,14.20
2023-03-31T19:31:52.622Z,13.30
2023-03-31T19:34:49.030Z,14.60
2023-03-31T19:37:42.718Z,16.50
2023-03-31T19:40:38.768Z,15.50
2023-03-31T19:43:32.906Z,15.90
2023-03-31T19:46:26.924Z,14.00
2023-03-31T19:49:21.978Z,13.80
2023-03-31T19:52:16.920Z,14.70
2023-03-31T19:55:11.895Z,14.30
2023-03-31T19:58:06.898Z,16.50
2023-03-31T20:01:02.303Z,15.30
2023-03-31T20:03:56.872Z,17.10
2023-03-31T20:06:51.296Z,13.40
2023-03-31T20:09:46.009Z,15.70
2023-03-31T20:12:40.028Z,20.20
2023-03-31T20:15:34.224Z,16.10
2023-03-31T20:18:53.434Z,17.10
2023-03-31T20:22:39.955Z,15.40
2023-03-31T20:25:59.975Z,17.80
2023-03-31T20:29:04.660Z,19.60
2023-03-31T20:32:00.409Z,18.60
2023-03-31T20:34:41.324Z,17.70
2023-03-31T20:37:35.888Z,19.60
2023-03-31T20:43:17.448Z,26.10
2023-03-31T20:46:36.256Z,18.50
2023-03-31T20:49:13.255Z,74.90
2023-03-31T20:52:08.157Z,73.90
2023-03-31T20:55:03.460Z,65.20
2023-03-31T20:57:57.380Z,64.90
2023-03-31T21:01:00.280Z,63.90
2023-03-31T21:03:54.844Z,66.00
2023-03-31T21:06:51.738Z,63.60
2023-03-31T21:09:46.885Z,64.80
2023-03-31T21:12:46.515Z,60.60
2023-03-31T21:15:23.288Z,57.30
2023-03-31T21:18:24.448Z,62.80
2023-03-31T21:21:20.855Z,62.90
2023-03-31T21:24:18.826Z,58.10
2023-03-31T21:27:13.931Z,54.10
2023-03-31T21:30:10.582Z,52.40
2023-03-31T21:33:13.328Z,35.30
2023-03-31T21:36:10.781Z,34.90
2023-03-31T21:39:07.047Z,35.40
2023-03-31T21:41:43.769Z,34.00
2023-03-31T21:44:40.094Z,31.90
2023-03-31T21:47:23.890Z,29.80
2023-03-31T21:50:22.999Z,29.50
2023-03-31T21:53:19.322Z,30.00
2023-03-31T21:56:17.251Z,25.10
2023-03-31T21:59:19.279Z,26.60
2023-03-31T22:02:23.911Z,23.50
2023-03-31T22:05:20.260Z,24.00
2023-03-31T22:08:18.784Z,23.70
2023-03-31T22:11:18.325Z,23.60
2023-03-31T22:14:34.108Z,20.40
2023-03-31T22:17:28.464Z,22.00
2023-03-31T22:20:24.752Z,21.00
2023-03-31T22:23:21.012Z,19.10
2023-03-31T22:26:15.511Z,21.20
2023-03-31T22:29:14.360Z,22.00
2023-03-31T22:32:12.069Z,18.90
2023-03-31T22:35:09.461Z,19.20
2023-03-31T22:38:08.849Z,17.60
2023-03-31T22:41:04.734Z,18.00
2023-03-31T22:43:52.510Z,18.10
2023-03-31T22:46:51.649Z,16.20
2023-03-31T22:49:49.511Z,16.00
2023-03-31T22:52:50.009Z,15.00
2023-03-31T22:55:54.052Z,13.30
2023-03-31T22:58:52.101Z,15.10
2023-03-31T23:01:53.197Z,13.60
2023-03-31T23:04:53.499Z,15.00
2023-03-31T23:07:48.404Z,10.80
2023-03-31T23:11:05.520Z,11.90
2023-03-31T23:14:04.155Z,9.60
2023-03-31T23:17:00.666Z,12.70
2023-03-31T23:19:56.270Z,13.20
2023-03-31T23:23:40.625Z,11.90
2023-03-31T23:26:09.598Z,12.00
2023-03-31T23:29:05.680Z,12.70
2023-03-31T23:32:21.658Z,10.20
2023-03-31T23:35:19.197Z,10.10
2023-03-31T23:38:18.319Z,8.20
2023-03-31T23:41:14.590Z,10.10
2023-03-31T23:44:13.017Z,9.00
2023-03-31T23:47:08.991Z,7.90
2023-03-31T23:51:07.158Z,8.30
2023-03-31T23:53:29.342Z,8.50
2023-03-31T23:56:14.859Z,9.10
2023-03-31T23:59:13.875Z,6.70
